MMUN

Cancun International Airport

ICAO Code MMUN
IATA Code CUN
Name Cancun International Airport
Location Cancun, Quintana-Roo, MX
Elevation 22 Feet / 6.7 Meters
Latitude 21.03650093
Longitude -86.87709808
METAR MMUN 240448Z 03004KT 7SM BKN015TCU BKN080 22/18 A3003 RMK 8/260
Extra information Display Charts and CFS
Display NOTAMS
Runway Length Width Surface Elevation
12L 9186 ft 148 ft ASP 22 ft
12R 11483 ft 197 ft ASP 20 ft
30R 9186 ft 148 ft ASP 18 ft
30L 11483 ft 197 ft ASP 18 ft